createdAt,value
2022-09-17T00:00:33.005Z,994.9
2022-09-17T00:01:29.530Z,994.9
2022-09-17T00:02:25.539Z,994.9
2022-09-17T00:03:24.548Z,994.9
2022-09-17T00:04:29.836Z,994.9
2022-09-17T00:05:29.691Z,994.9
2022-09-17T00:06:24.091Z,994.9
2022-09-17T00:07:35.299Z,994.9
2022-09-17T00:08:27.004Z,994.9
2022-09-17T00:09:22.481Z,994.9
2022-09-17T00:10:27.361Z,994.9
2022-09-17T00:11:31.399Z,994.9
2022-09-17T00:12:26.605Z,994.9
2022-09-17T00:13:23.561Z,994.9
2022-09-17T00:14:22.837Z,994.9
2022-09-17T00:15:26.384Z,994.9
2022-09-17T00:16:25.774Z,994.9
2022-09-17T00:17:35.670Z,994.9
2022-09-17T00:18:28.403Z,994.9
2022-09-17T00:19:24.644Z,994.9
2022-09-17T00:20:20.574Z,994.9
2022-09-17T00:21:25.424Z,994.9
2022-09-17T00:22:29.161Z,994.9
2022-09-17T00:23:24.040Z,994.9
2022-09-17T00:24:20.552Z,994.9
2022-09-17T00:25:23.115Z,994.9
2022-09-17T00:26:24.265Z,994.9
2022-09-17T00:27:20.689Z,994.9
2022-09-17T00:28:22.477Z,995.0
2022-09-17T00:29:27.879Z,995.0
2022-09-17T00:30:26.895Z,995.0
2022-09-17T00:31:25.258Z,994.9
2022-09-17T00:32:25.629Z,994.9
2022-09-17T00:33:31.614Z,994.9
2022-09-17T00:34:20.891Z,994.9
2022-09-17T00:35:24.855Z,994.9
2022-09-17T00:36:30.406Z,994.9
2022-09-17T00:37:22.441Z,994.9
2022-09-17T00:38:32.643Z,994.8
2022-09-17T00:39:24.035Z,994.9
2022-09-17T00:40:24.981Z,994.9
2022-09-17T00:41:21.717Z,994.9
2022-09-17T00:42:33.967Z,994.9
2022-09-17T00:43:25.962Z,994.9
2022-09-17T00:44:25.005Z,994.9
2022-09-17T00:45:40.629Z,994.9
2022-09-17T00:46:29.371Z,995.0
2022-09-17T00:47:24.770Z,995.0
2022-09-17T00:48:22.919Z,995.0
2022-09-17T00:49:37.536Z,995.0
2022-09-17T00:50:29.551Z,995.0
2022-09-17T00:51:19.985Z,995.0
2022-09-17T00:52:37.928Z,995.0
2022-09-17T00:53:34.585Z,995.1
2022-09-17T00:54:24.812Z,995.1
2022-09-17T00:55:20.871Z,995.1
2022-09-17T00:56:30.583Z,995.1
2022-09-17T00:57:30.107Z,995.1
2022-09-17T00:58:24.099Z,995.1
2022-09-17T00:59:23.028Z,995.1
2022-09-17T01:00:55.773Z,995.1
2022-09-17T01:01:33.784Z,995.2
2022-09-17T02:05:21.453Z,995.4
2022-09-17T02:06:39.410Z,995.4
2022-09-17T02:07:33.184Z,995.4
2022-09-17T02:08:27.295Z,995.3
2022-09-17T03:10:32.085Z,995.9
2022-09-17T03:11:27.061Z,995.9
2022-09-17T03:12:35.940Z,995.9
2022-09-17T03:13:44.670Z,995.9
2022-09-17T03:14:31.218Z,995.9
2022-09-17T03:15:50.484Z,995.9
2022-09-17T03:16:33.259Z,995.9
2022-09-17T03:17:28.570Z,996.0
2022-09-17T03:18:24.213Z,996.0
2022-09-17T03:19:34.244Z,996.0
2022-09-17T03:20:31.496Z,996.0
2022-09-17T03:21:26.002Z,996.0
2022-09-17T03:22:22.757Z,996.0
2022-09-17T03:23:36.093Z,996.0
2022-09-17T03:24:28.004Z,996.0
2022-09-17T03:25:23.572Z,996.0
2022-09-17T03:26:35.616Z,996.0
2022-09-17T03:27:28.787Z,996.0
2022-09-17T03:28:27.728Z,996.0
2022-09-17T03:29:21.796Z,996.0
2022-09-17T03:30:22.376Z,996.0
2022-09-17T03:31:26.891Z,996.0
2022-09-17T03:32:26.188Z,996.0
2022-09-17T03:33:22.899Z,996.0
2022-09-17T03:34:33.223Z,996.0
2022-09-17T03:35:26.528Z,996.0
2022-09-17T03:36:20.580Z,996.0
2022-09-17T03:37:29.865Z,996.0
2022-09-17T03:38:21.555Z,996.0
2022-09-17T03:39:22.919Z,996.0
2022-09-17T03:40:23.986Z,996.0
2022-09-17T03:41:19.880Z,996.0
2022-09-17T03:42:28.029Z,996.0
2022-09-17T03:43:24.057Z,996.0
2022-09-17T03:44:31.373Z,996.0
2022-09-17T03:45:27.992Z,996.1
2022-09-17T03:46:30.801Z,996.1
2022-09-17T03:47:27.296Z,996.1
2022-09-17T03:48:26.666Z,996.1
2022-09-17T03:49:26.806Z,996.1
2022-09-17T03:50:22.116Z,996.1
2022-09-17T03:51:21.172Z,996.1
2022-09-17T03:52:27.750Z,996.2
2022-09-17T03:53:26.380Z,996.2
2022-09-17T03:54:30.502Z,996.2
2022-09-17T03:55:31.555Z,996.2
2022-09-17T03:56:21.647Z,996.2
2022-09-17T03:57:24.860Z,996.2
2022-09-17T03:58:26.351Z,996.2
2022-09-17T03:59:29.617Z,996.2
2022-09-17T04:00:27.097Z,996.2
2022-09-17T04:01:34.528Z,996.2
2022-09-17T04:02:28.763Z,996.2
2022-09-17T04:03:26.296Z,996.2
2022-09-17T04:04:20.787Z,996.2
2022-09-17T04:05:31.457Z,996.2
2022-09-17T04:06:31.258Z,996.2
2022-09-17T04:07:27.323Z,996.2
2022-09-17T04:08:24.244Z,996.2
2022-09-17T04:09:24.570Z,996.2
2022-09-17T04:10:24.586Z,996.2
2022-09-17T04:11:23.687Z,996.2
2022-09-17T04:12:31.320Z,996.2
2022-09-17T04:13:28.283Z,996.2
2022-09-17T04:14:27.634Z,996.2
2022-09-17T04:15:26.657Z,996.2
2022-09-17T04:16:19.850Z,996.3
2022-09-17T04:17:27.526Z,996.3
2022-09-17T04:18:23.490Z,996.3
2022-09-17T04:19:35.728Z,996.3
2022-09-17T04:20:20.278Z,996.4
2022-09-17T04:21:22.606Z,996.4
2022-09-17T04:22:34.482Z,996.4
2022-09-17T04:23:23.716Z,996.4
2022-09-17T04:24:28.609Z,996.4
2022-09-17T04:25:24.339Z,996.4
2022-09-17T04:26:24.391Z,996.4
2022-09-17T04:27:23.883Z,996.4
2022-09-17T04:28:24.908Z,996.4
2022-09-17T04:29:39.250Z,996.4
2022-09-17T04:30:34.178Z,996.5
2022-09-17T04:31:21.216Z,996.4
2022-09-17T04:32:20.546Z,996.5
2022-09-17T04:33:30.851Z,996.5
2022-09-17T04:34:23.414Z,996.5
2022-09-17T04:35:26.141Z,996.5
2022-09-17T04:36:33.575Z,996.5
2022-09-17T04:37:30.905Z,996.5
2022-09-17T04:38:21.766Z,996.5
2022-09-17T04:39:21.859Z,996.5
2022-09-17T04:40:34.753Z,996.5
2022-09-17T04:41:27.494Z,996.5
2022-09-17T04:42:22.979Z,996.5
2022-09-17T04:43:35.445Z,996.5
2022-09-17T04:44:26.496Z,996.6
2022-09-17T04:45:24.877Z,996.6
2022-09-17T04:46:23.501Z,996.6
2022-09-17T04:47:32.801Z,996.6
2022-09-17T04:48:30.635Z,996.7
2022-09-17T04:49:24.683Z,996.7
2022-09-17T04:50:33.933Z,996.7
2022-09-17T04:51:28.899Z,996.7
2022-09-17T04:52:32.279Z,996.7
2022-09-17T04:53:21.867Z,996.7
2022-09-17T04:54:31.090Z,996.8
2022-09-17T04:55:24.375Z,996.8
2022-09-17T04:56:23.473Z,996.8
2022-09-17T04:57:32.645Z,996.8
2022-09-17T04:58:30.607Z,996.8
2022-09-17T04:59:24.746Z,996.8
2022-09-17T05:00:25.069Z,996.8
2022-09-17T05:01:39.123Z,996.8
2022-09-17T05:02:30.126Z,996.8
2022-09-17T05:03:29.542Z,996.8
2022-09-17T05:04:25.667Z,996.9
2022-09-17T05:05:30.264Z,996.9
2022-09-17T05:06:20.249Z,996.9
2022-09-17T05:07:20.969Z,996.9
2022-09-17T05:08:31.245Z,996.9
2022-09-17T05:09:20.828Z,996.9
2022-09-17T05:10:24.082Z,997.0
2022-09-17T05:11:27.486Z,997.0
2022-09-17T05:12:25.890Z,997.0
2022-09-17T05:13:26.303Z,997.0
2022-09-17T05:14:23.478Z,997.0
2022-09-17T05:15:32.557Z,997.0
2022-09-17T05:16:28.487Z,997.0
2022-09-17T05:17:23.011Z,997.0
2022-09-17T05:18:34.114Z,997.0
2022-09-17T05:19:22.819Z,997.0
2022-09-17T05:20:26.595Z,997.0
2022-09-17T05:21:34.548Z,997.0
2022-09-17T05:22:31.055Z,997.1
2022-09-17T05:23:27.798Z,997.0
2022-09-17T05:24:23.019Z,997.1
2022-09-17T05:25:24.442Z,997.1
2022-09-17T05:26:30.213Z,997.1
2022-09-17T05:27:19.948Z,997.1
2022-09-17T05:28:20.648Z,997.1
2022-09-17T05:29:28.431Z,997.1
2022-09-17T05:30:30.276Z,997.1
2022-09-17T05:31:22.783Z,997.1
2022-09-17T05:32:24.383Z,997.2
2022-09-17T05:33:30.537Z,997.2
2022-09-17T05:34:29.210Z,997.2
2022-09-17T05:35:20.565Z,997.2
2022-09-17T05:36:32.362Z,997.2
2022-09-17T05:37:29.833Z,997.2
2022-09-17T05:38:24.562Z,997.2
2022-09-17T05:39:24.343Z,997.2
2022-09-17T05:40:27.831Z,997.2
2022-09-17T05:41:33.259Z,997.2
2022-09-17T05:42:22.506Z,997.2
2022-09-17T05:43:22.647Z,997.2
2022-09-17T05:44:33.521Z,997.2
2022-09-17T05:45:26.042Z,997.2
2022-09-17T05:46:33.293Z,997.3
2022-09-17T05:47:22.336Z,997.3
2022-09-17T05:48:28.428Z,997.3
2022-09-17T05:49:21.070Z,997.3
2022-09-17T05:50:25.613Z,997.3
2022-09-17T05:51:22.520Z,997.3
2022-09-17T05:52:25.427Z,997.3
2022-09-17T05:53:33.495Z,997.4
2022-09-17T05:54:21.837Z,997.4
2022-09-17T05:55:25.593Z,997.4
2022-09-17T05:56:23.891Z,997.4
2022-09-17T05:57:22.078Z,997.4
2022-09-17T05:58:28.383Z,997.4
2022-09-17T05:59:38.538Z,997.4
2022-09-17T06:00:37.786Z,997.4
2022-09-17T06:01:26.297Z,997.4
2022-09-17T06:02:23.549Z,997.4
2022-09-17T06:03:23.678Z,997.4
2022-09-17T06:04:29.592Z,997.4
2022-09-17T06:05:31.223Z,997.4
2022-09-17T06:06:26.092Z,997.4
2022-09-17T06:07:33.218Z,997.5
2022-09-17T06:08:26.881Z,997.5
2022-09-17T06:09:28.338Z,997.5
2022-09-17T06:10:23.685Z,997.5
2022-09-17T06:11:30.521Z,997.5
2022-09-17T06:12:24.489Z,997.5
2022-09-17T06:13:24.770Z,997.5
2022-09-17T06:14:28.272Z,997.5
2022-09-17T06:15:29.254Z,997.5
2022-09-17T06:16:24.925Z,997.5
2022-09-17T06:17:23.178Z,997.5
2022-09-17T06:18:34.694Z,997.5
2022-09-17T06:19:20.898Z,997.5
2022-09-17T06:20:19.743Z,997.5
2022-09-17T06:21:35.225Z,997.6
2022-09-17T06:22:34.627Z,997.6
2022-09-17T06:23:29.424Z,997.6
2022-09-17T06:24:21.058Z,997.6
2022-09-17T06:25:20.163Z,997.6
2022-09-17T06:26:29.011Z,997.6
2022-09-17T06:27:24.748Z,997.7
2022-09-17T06:28:35.780Z,997.7
2022-09-17T06:29:30.878Z,997.7
2022-09-17T06:30:28.300Z,997.7
2022-09-17T06:31:20.750Z,997.7
2022-09-17T06:32:26.053Z,997.7
2022-09-17T06:33:29.373Z,997.7
2022-09-17T06:34:22.624Z,997.7
2022-09-17T06:35:38.453Z,997.7
2022-09-17T06:36:23.610Z,997.7
2022-09-17T06:37:25.713Z,997.7
2022-09-17T06:38:21.935Z,997.7
2022-09-17T06:39:32.834Z,997.7
2022-09-17T06:40:22.929Z,997.7
2022-09-17T06:41:23.253Z,997.7
2022-09-17T06:42:30.391Z,997.7
2022-09-17T06:43:29.036Z,997.8
2022-09-17T06:44:27.160Z,997.8
2022-09-17T06:45:21.077Z,997.8
2022-09-17T06:46:32.507Z,997.8
2022-09-17T06:47:27.234Z,997.8
2022-09-17T06:48:23.156Z,997.8
2022-09-17T06:49:32.535Z,997.8
2022-09-17T06:50:26.483Z,997.8
2022-09-17T06:51:27.300Z,997.8
2022-09-17T06:52:20.948Z,997.8
2022-09-17T06:53:28.035Z,997.8
2022-09-17T06:54:31.282Z,997.9
2022-09-17T06:55:23.104Z,997.9
2022-09-17T06:56:32.821Z,997.9
2022-09-17T06:57:25.729Z,997.9
2022-09-17T06:58:25.708Z,997.9
2022-09-17T06:59:23.813Z,998.0
2022-09-17T07:00:32.670Z,998.0
2022-09-17T07:01:27.082Z,998.0
2022-09-17T07:02:33.266Z,998.0
2022-09-17T07:03:23.128Z,998.0
2022-09-17T07:04:22.106Z,997.9
2022-09-17T07:05:25.399Z,998.0
2022-09-17T07:06:21.232Z,998.0
2022-09-17T07:07:32.326Z,998.0
2022-09-17T07:08:30.405Z,998.0
2022-09-17T07:09:28.705Z,998.0
2022-09-17T07:10:25.816Z,998.0
2022-09-17T07:11:33.565Z,998.0
2022-09-17T07:12:26.459Z,998.0
2022-09-17T07:13:23.948Z,998.0
2022-09-17T07:14:30.980Z,998.0
2022-09-17T07:15:30.442Z,998.0
2022-09-17T07:16:24.474Z,998.0
2022-09-17T07:17:27.065Z,998.0
2022-09-17T07:18:25.990Z,998.0
2022-09-17T07:19:27.571Z,998.0
2022-09-17T07:20:26.688Z,998.0
2022-09-17T07:21:23.186Z,998.0
2022-09-17T07:22:32.977Z,998.0
2022-09-17T07:23:24.726Z,998.0
2022-09-17T07:24:27.497Z,998.0
2022-09-17T07:25:45.205Z,998.0
2022-09-17T07:26:24.770Z,998.0
2022-09-17T07:27:24.626Z,998.0
2022-09-17T07:28:25.827Z,998.0
2022-09-17T07:29:26.766Z,998.1
2022-09-17T07:30:27.940Z,998.1
2022-09-17T07:31:30.753Z,998.1
2022-09-17T07:32:25.334Z,998.1
2022-09-17T07:33:25.101Z,998.1
2022-09-17T07:34:21.047Z,998.1
2022-09-17T07:35:28.675Z,998.1
2022-09-17T07:36:26.740Z,998.1
2022-09-17T07:37:22.769Z,998.1
2022-09-17T07:38:25.612Z,998.1
2022-09-17T07:39:30.408Z,998.2
2022-09-17T07:40:26.271Z,998.2
2022-09-17T07:41:23.159Z,998.2
2022-09-17T07:42:37.309Z,998.2
2022-09-17T07:43:24.455Z,998.2
2022-09-17T07:44:25.296Z,998.2
2022-09-17T07:45:40.026Z,998.2
2022-09-17T07:46:23.321Z,998.2
2022-09-17T07:47:28.203Z,998.2
2022-09-17T07:48:24.477Z,998.2
2022-09-17T07:49:24.433Z,998.1
2022-09-17T07:50:31.799Z,998.1
2022-09-17T07:51:23.883Z,998.1
2022-09-17T07:52:37.261Z,998.1
2022-09-17T07:53:27.196Z,998.1
2022-09-17T07:54:27.452Z,998.1
2022-09-17T07:55:20.823Z,998.1
2022-09-17T07:56:24.549Z,998.1
2022-09-17T07:57:29.720Z,998.1
2022-09-17T07:58:26.611Z,998.1
2022-09-17T07:59:33.178Z,998.1
2022-09-17T08:00:30.073Z,998.1
2022-09-17T08:01:25.337Z,998.1
2022-09-17T08:02:24.414Z,998.1
2022-09-17T08:03:26.752Z,998.1
2022-09-17T08:04:22.628Z,998.1
2022-09-17T08:05:25.665Z,998.1
2022-09-17T08:06:27.286Z,998.1
2022-09-17T08:07:31.050Z,998.1
2022-09-17T08:08:26.866Z,998.1
2022-09-17T08:09:21.140Z,998.1
2022-09-17T08:10:34.328Z,998.1
2022-09-17T08:11:57.569Z,998.1
2022-09-17T08:12:23.007Z,998.1
2022-09-17T08:13:28.585Z,998.1
2022-09-17T08:14:30.078Z,998.0
2022-09-17T08:15:20.401Z,998.0
2022-09-17T08:16:25.086Z,998.0
2022-09-17T08:17:20.605Z,998.1
2022-09-17T08:18:28.510Z,998.1
2022-09-17T08:19:26.200Z,998.1
2022-09-17T08:20:30.800Z,998.1
2022-09-17T08:21:26.131Z,998.1
2022-09-17T08:22:27.933Z,998.1
2022-09-17T08:23:28.875Z,998.1
2022-09-17T08:24:31.286Z,998.1
2022-09-17T08:25:28.206Z,998.1
2022-09-17T08:26:25.238Z,998.1
2022-09-17T08:27:33.071Z,998.1
2022-09-17T08:28:26.629Z,998.1
2022-09-17T08:29:26.462Z,998.1
2022-09-17T08:30:21.670Z,998.1
2022-09-17T08:31:33.020Z,998.1
2022-09-17T08:32:28.334Z,998.1
2022-09-17T08:33:24.280Z,998.1
2022-09-17T08:34:26.794Z,998.1
2022-09-17T08:35:30.218Z,998.1
2022-09-17T08:36:22.520Z,998.1
2022-09-17T08:37:21.071Z,998.1
2022-09-17T08:38:37.674Z,998.1
2022-09-17T08:39:47.813Z,998.1
2022-09-17T08:40:28.161Z,998.1
2022-09-17T08:41:27.423Z,998.1
2022-09-17T08:42:31.407Z,998.1
2022-09-17T08:43:32.537Z,998.1
2022-09-17T08:44:22.726Z,998.1
2022-09-17T08:45:19.709Z,998.1
2022-09-17T08:46:28.347Z,998.1
2022-09-17T08:47:22.830Z,998.2
2022-09-17T08:48:28.848Z,998.2
2022-09-17T08:49:30.672Z,998.2
2022-09-17T08:50:24.795Z,998.2
2022-09-17T08:51:24.581Z,998.2
2022-09-17T08:52:33.495Z,998.2
2022-09-17T08:53:27.071Z,998.2
2022-09-17T08:54:28.046Z,998.2
2022-09-17T08:55:35.899Z,998.2
2022-09-17T08:56:26.774Z,998.3
2022-09-17T08:57:25.531Z,998.3
2022-09-17T08:58:21.490Z,998.3
2022-09-17T08:59:22.868Z,998.3
2022-09-17T09:00:28.595Z,998.3
2022-09-17T09:01:24.040Z,998.3
2022-09-17T09:02:22.856Z,998.3
2022-09-17T09:03:31.744Z,998.3
2022-09-17T09:04:25.117Z,998.3
2022-09-17T09:05:21.407Z,998.4
2022-09-17T09:06:24.379Z,998.4
2022-09-17T09:07:27.124Z,998.4
2022-09-17T09:08:28.726Z,998.4
2022-09-17T09:09:23.694Z,998.4
2022-09-17T09:10:29.450Z,998.4
2022-09-17T09:11:28.471Z,998.4
2022-09-17T09:12:21.133Z,998.4
2022-09-17T09:13:31.348Z,998.4
2022-09-17T09:14:20.895Z,998.4
2022-09-17T09:15:23.256Z,998.4
2022-09-17T09:16:27.058Z,998.4
2022-09-17T09:17:29.284Z,998.4
2022-09-17T09:18:28.362Z,998.4
2022-09-17T09:19:26.131Z,998.4
2022-09-17T09:20:21.426Z,998.4
2022-09-17T09:21:26.970Z,998.4
2022-09-17T09:22:23.646Z,998.4
2022-09-17T09:23:31.981Z,998.4
2022-09-17T09:24:29.319Z,998.4
2022-09-17T09:25:26.746Z,998.4
2022-09-17T09:26:21.105Z,998.4
2022-09-17T09:27:25.292Z,998.4
2022-09-17T09:28:30.128Z,998.4
2022-09-17T09:29:23.088Z,998.4
2022-09-17T09:30:21.542Z,998.4
2022-09-17T09:31:23.923Z,998.4
2022-09-17T09:32:25.075Z,998.4
2022-09-17T09:33:22.494Z,998.4
2022-09-17T09:34:27.640Z,998.4
2022-09-17T09:35:26.886Z,998.4
2022-09-17T09:36:26.703Z,998.4
2022-09-17T09:37:36.804Z,998.4
2022-09-17T09:38:22.631Z,998.5
2022-09-17T09:39:24.958Z,998.5
2022-09-17T09:40:21.404Z,998.5
2022-09-17T09:41:31.754Z,998.5
2022-09-17T09:42:22.630Z,998.5
2022-09-17T09:43:22.880Z,998.5
2022-09-17T09:44:26.824Z,998.5
2022-09-17T09:45:27.684Z,998.5
2022-09-17T09:46:24.905Z,998.5
2022-09-17T09:47:25.615Z,998.5
2022-09-17T09:48:36.694Z,998.6
2022-09-17T09:49:20.690Z,998.6
2022-09-17T09:50:24.728Z,998.6
2022-09-17T09:51:28.066Z,998.6
2022-09-17T09:52:22.854Z,998.6
2022-09-17T09:53:27.627Z,998.6
2022-09-17T09:54:20.841Z,998.6
2022-09-17T09:55:32.797Z,998.6
2022-09-17T09:56:27.203Z,998.5
2022-09-17T09:57:24.642Z,998.5
2022-09-17T09:58:22.070Z,998.5
2022-09-17T09:59:24.004Z,998.5
2022-09-17T10:00:28.490Z,998.5
2022-09-17T10:01:20.825Z,998.5
2022-09-17T10:02:33.028Z,998.5
2022-09-17T10:03:29.265Z,998.5
2022-09-17T10:04:25.997Z,998.5
2022-09-17T10:05:21.486Z,998.5
2022-09-17T10:06:30.212Z,998.6
2022-09-17T10:07:21.597Z,998.6
2022-09-17T10:08:21.474Z,998.6
2022-09-17T10:09:31.758Z,998.6
2022-09-17T10:10:28.466Z,998.6
2022-09-17T10:11:23.290Z,998.6
2022-09-17T10:12:26.657Z,998.6
2022-09-17T10:13:32.786Z,998.6
2022-09-17T10:14:25.150Z,998.6
2022-09-17T10:15:24.719Z,998.6
2022-09-17T10:16:31.088Z,998.6
2022-09-17T10:17:29.126Z,998.6
2022-09-17T10:18:20.303Z,998.7
2022-09-17T10:19:31.278Z,998.7
2022-09-17T10:20:23.662Z,998.7
2022-09-17T10:21:27.936Z,998.7
2022-09-17T10:22:21.685Z,998.7
2022-09-17T10:23:31.097Z,998.7
2022-09-17T10:24:28.726Z,998.6
2022-09-17T10:25:23.226Z,998.6
2022-09-17T10:26:33.925Z,998.6
2022-09-17T10:27:36.268Z,998.6
2022-09-17T10:28:34.287Z,998.6
2022-09-17T10:29:25.947Z,998.6
2022-09-17T10:30:30.891Z,998.6
2022-09-17T10:31:28.439Z,998.6
2022-09-17T10:32:25.893Z,998.6
2022-09-17T10:33:34.412Z,998.7
2022-09-17T10:34:32.658Z,998.7
2022-09-17T10:35:25.040Z,998.7
2022-09-17T10:36:21.320Z,998.7
2022-09-17T10:37:22.505Z,998.7
2022-09-17T10:38:28.591Z,998.6
2022-09-17T10:39:24.617Z,998.7
2022-09-17T10:40:35.233Z,998.7
2022-09-17T10:41:28.851Z,998.6
2022-09-17T10:42:27.469Z,998.6
2022-09-17T10:43:23.882Z,998.6
2022-09-17T10:44:28.595Z,998.6
2022-09-17T10:45:22.237Z,998.7
2022-09-17T10:46:27.387Z,998.7
2022-09-17T10:47:38.447Z,998.7
2022-09-17T10:48:28.873Z,998.7
2022-09-17T10:49:25.686Z,998.7
2022-09-17T10:50:23.278Z,998.7
2022-09-17T10:51:39.425Z,998.7
2022-09-17T10:52:26.124Z,998.7
2022-09-17T10:53:24.737Z,998.7
2022-09-17T10:54:23.752Z,998.7
2022-09-17T10:55:36.599Z,998.7
2022-09-17T10:56:28.294Z,998.7
2022-09-17T10:57:24.583Z,998.7
2022-09-17T10:58:25.293Z,998.7
2022-09-17T10:59:27.846Z,998.7
2022-09-17T11:00:24.939Z,998.7
2022-09-17T11:01:25.536Z,998.7
2022-09-17T11:02:30.297Z,998.7
2022-09-17T11:03:28.785Z,998.7
2022-09-17T11:04:22.963Z,998.7
2022-09-17T11:05:21.223Z,998.7
2022-09-17T11:06:22.811Z,998.7
2022-09-17T11:07:24.318Z,998.7
2022-09-17T11:08:30.933Z,998.6
2022-09-17T11:09:31.253Z,998.6
2022-09-17T11:10:24.962Z,998.6
2022-09-17T11:11:22.726Z,998.6
2022-09-17T11:12:24.183Z,998.6
2022-09-17T11:13:25.831Z,998.6
2022-09-17T11:14:24.787Z,998.6
2022-09-17T11:15:21.638Z,998.7
2022-09-17T11:16:29.969Z,998.7
2022-09-17T11:17:27.857Z,998.7
2022-09-17T11:18:21.246Z,998.7
2022-09-17T11:19:26.985Z,998.7
2022-09-17T11:20:29.453Z,998.7
2022-09-17T11:21:23.257Z,998.7
2022-09-17T11:22:25.855Z,998.7
2022-09-17T11:23:21.406Z,998.7
2022-09-17T11:24:25.262Z,998.7
2022-09-17T11:25:22.530Z,998.7
2022-09-17T11:26:32.602Z,998.7
2022-09-17T11:27:27.491Z,998.7
2022-09-17T11:28:29.924Z,998.7
2022-09-17T11:29:30.797Z,998.7
2022-09-17T11:30:29.247Z,998.7
2022-09-17T11:31:29.561Z,998.7
2022-09-17T11:32:21.142Z,998.7
2022-09-17T11:33:31.583Z,998.7
2022-09-17T11:34:31.118Z,998.7
2022-09-17T11:35:23.298Z,998.7
2022-09-17T11:36:23.244Z,998.7
2022-09-17T11:37:32.305Z,998.6
2022-09-17T11:38:27.707Z,998.6
2022-09-17T11:39:22.084Z,998.6
2022-09-17T11:40:36.256Z,998.7
2022-09-17T11:41:24.036Z,998.6
2022-09-17T11:42:27.070Z,998.7
2022-09-17T11:43:26.333Z,998.7
2022-09-17T11:44:30.641Z,998.7
2022-09-17T11:45:25.301Z,998.7
2022-09-17T11:46:25.345Z,998.7
2022-09-17T11:47:30.946Z,998.7
2022-09-17T11:48:29.726Z,998.7
2022-09-17T11:49:26.368Z,998.7
2022-09-17T11:50:30.278Z,998.7
2022-09-17T11:51:28.501Z,998.7
2022-09-17T11:52:25.662Z,998.7
2022-09-17T11:53:22.541Z,998.7
2022-09-17T11:54:31.377Z,998.8
2022-09-17T11:55:27.479Z,998.8
2022-09-17T11:56:25.582Z,998.7
2022-09-17T11:57:37.621Z,998.7
2022-09-17T11:58:31.985Z,998.7
2022-09-17T11:59:28.069Z,998.7
2022-09-17T12:00:21.234Z,998.7
2022-09-17T12:01:31.500Z,998.7
2022-09-17T12:02:30.596Z,998.6
2022-09-17T12:03:23.020Z,998.6
2022-09-17T12:04:33.449Z,998.6
2022-09-17T12:05:33.482Z,998.6
2022-09-17T12:06:26.389Z,998.6
2022-09-17T12:07:21.480Z,998.6
2022-09-17T12:08:23.543Z,998.6
2022-09-17T12:09:26.972Z,998.7
2022-09-17T12:10:23.077Z,998.7
2022-09-17T12:11:34.916Z,998.7
2022-09-17T12:12:48.965Z,998.6
2022-09-17T12:13:29.876Z,998.6
2022-09-17T12:14:22.068Z,998.6
2022-09-17T12:15:27.295Z,998.6
2022-09-17T12:16:28.576Z,998.6
2022-09-17T12:17:24.329Z,998.6
2022-09-17T12:18:35.382Z,998.7
2022-09-17T12:19:29.593Z,998.6
2022-09-17T12:20:27.647Z,998.6
2022-09-17T12:21:26.184Z,998.6
2022-09-17T12:22:33.653Z,998.6
2022-09-17T12:23:23.528Z,998.6
2022-09-17T12:24:22.945Z,998.6
2022-09-17T12:25:36.112Z,998.6
2022-09-17T12:26:31.913Z,998.6
2022-09-17T12:27:25.228Z,998.6
2022-09-17T12:28:26.311Z,998.6
2022-09-17T12:29:23.272Z,998.6
2022-09-17T12:30:29.774Z,998.6
2022-09-17T12:31:26.247Z,998.6
2022-09-17T12:32:34.801Z,998.6
2022-09-17T12:33:29.168Z,998.5
2022-09-17T12:34:28.060Z,998.5
2022-09-17T12:35:40.893Z,998.5
2022-09-17T12:36:31.019Z,998.6
2022-09-17T12:37:20.368Z,998.5
2022-09-17T12:38:23.711Z,998.5
2022-09-17T12:39:19.395Z,998.6
2022-09-17T12:40:29.347Z,998.6
2022-09-17T12:41:23.079Z,998.6
2022-09-17T12:42:25.280Z,998.6
2022-09-17T12:43:34.413Z,998.6
2022-09-17T12:44:27.290Z,998.6
2022-09-17T12:45:26.102Z,998.6
2022-09-17T12:46:22.541Z,998.6
2022-09-17T12:47:27.159Z,998.6
2022-09-17T12:48:25.342Z,998.6
2022-09-17T12:49:24.010Z,998.6
2022-09-17T12:50:32.717Z,998.6
2022-09-17T12:51:29.232Z,998.6
2022-09-17T12:52:23.417Z,998.6
2022-09-17T12:53:29.276Z,998.6
2022-09-17T12:54:31.050Z,998.6
2022-09-17T12:55:27.285Z,998.7
2022-09-17T12:56:21.103Z,998.7
2022-09-17T12:57:20.716Z,998.6
2022-09-17T12:58:25.505Z,998.6
2022-09-17T12:59:29.736Z,998.6
2022-09-17T13:00:34.123Z,998.6
2022-09-17T13:01:26.495Z,998.6
2022-09-17T13:02:26.644Z,998.6
2022-09-17T13:03:24.766Z,998.6
2022-09-17T13:04:43.651Z,998.6
2022-09-17T13:05:40.219Z,998.6
2022-09-17T13:06:23.220Z,998.6
2022-09-17T13:07:24.291Z,998.5
2022-09-17T13:08:33.426Z,998.5
2022-09-17T13:09:20.550Z,998.5
2022-09-17T13:10:21.205Z,998.5
2022-09-17T13:11:31.508Z,998.5
2022-09-17T13:12:26.761Z,998.5
2022-09-17T13:13:24.984Z,998.5
2022-09-17T13:14:29.788Z,998.5
2022-09-17T13:15:21.538Z,998.5
2022-09-17T13:16:25.106Z,998.5
2022-09-17T13:17:25.406Z,998.5
2022-09-17T13:18:36.921Z,998.5
2022-09-17T13:19:30.205Z,998.5
2022-09-17T13:20:23.192Z,998.5
2022-09-17T13:21:34.619Z,998.5
2022-09-17T13:22:24.937Z,998.5
2022-09-17T13:23:26.430Z,998.5
2022-09-17T13:24:23.201Z,998.5
2022-09-17T13:25:35.335Z,998.5
2022-09-17T13:26:24.491Z,998.5
2022-09-17T13:27:25.137Z,998.5
2022-09-17T13:28:42.252Z,998.5
2022-09-17T13:29:29.224Z,998.5
2022-09-17T13:30:24.397Z,998.5
2022-09-17T13:31:23.590Z,998.5
2022-09-17T13:32:32.834Z,998.5
2022-09-17T13:33:22.535Z,998.5
2022-09-17T13:34:27.197Z,998.5
2022-09-17T13:35:35.088Z,998.5
2022-09-17T13:36:32.256Z,998.5
2022-09-17T13:37:25.380Z,998.5
2022-09-17T13:38:23.767Z,998.5
2022-09-17T13:39:20.703Z,998.5
2022-09-17T13:40:27.357Z,998.5
2022-09-17T13:41:23.353Z,998.5
2022-09-17T13:42:35.474Z,998.5
2022-09-17T13:43:26.492Z,998.4
2022-09-17T13:44:21.771Z,998.4
2022-09-17T13:45:22.404Z,998.4
2022-09-17T13:46:24.942Z,998.4
2022-09-17T13:47:31.011Z,998.5
2022-09-17T13:48:26.660Z,998.5
2022-09-17T13:49:30.268Z,998.5
2022-09-17T13:50:33.070Z,998.5
2022-09-17T13:51:26.287Z,998.5
2022-09-17T13:52:23.533Z,998.5
2022-09-17T13:53:22.715Z,998.5
2022-09-17T13:54:21.419Z,998.5
2022-09-17T13:55:23.731Z,998.5
2022-09-17T13:56:34.093Z,998.5
2022-09-17T13:57:31.086Z,998.5
2022-09-17T13:58:31.718Z,998.5
2022-09-17T13:59:21.187Z,998.5
2022-09-17T14:00:31.268Z,998.5
2022-09-17T14:01:29.847Z,998.4
2022-09-17T14:02:31.519Z,998.4
2022-09-17T14:03:34.756Z,998.4
2022-09-17T14:04:29.855Z,998.5
2022-09-17T14:05:25.149Z,998.5
2022-09-17T14:06:22.125Z,998.4
2022-09-17T14:07:30.956Z,998.4
2022-09-17T14:08:21.327Z,998.5
2022-09-17T14:09:24.729Z,998.5
2022-09-17T14:10:33.273Z,998.5
2022-09-17T14:11:25.246Z,998.5
2022-09-17T14:12:28.181Z,998.5
2022-09-17T14:13:21.123Z,998.4
2022-09-17T14:14:34.100Z,998.4
2022-09-17T14:15:31.470Z,998.4
2022-09-17T14:16:27.340Z,998.4
2022-09-17T14:17:22.830Z,998.4
2022-09-17T14:18:29.513Z,998.4
2022-09-17T14:19:26.577Z,998.4
2022-09-17T14:20:22.726Z,998.4
2022-09-17T14:21:33.525Z,998.4
2022-09-17T14:22:21.519Z,998.4
2022-09-17T14:23:23.934Z,998.4
2022-09-17T14:24:27.105Z,998.4
2022-09-17T14:25:30.419Z,998.4
2022-09-17T14:26:27.771Z,998.4
2022-09-17T14:27:21.227Z,998.4
2022-09-17T14:28:26.218Z,998.4
2022-09-17T14:29:29.260Z,998.3
2022-09-17T14:30:23.051Z,998.3
2022-09-17T14:31:20.800Z,998.4
2022-09-17T14:32:21.134Z,998.3
2022-09-17T14:33:24.921Z,998.3
2022-09-17T14:34:23.680Z,998.4
2022-09-17T14:35:35.897Z,998.3
2022-09-17T14:36:27.734Z,998.3
2022-09-17T14:37:22.968Z,998.3
2022-09-17T14:38:25.508Z,998.3
2022-09-17T14:39:27.770Z,998.3
2022-09-17T14:40:25.500Z,998.3
2022-09-17T14:41:27.337Z,998.3
2022-09-17T14:42:32.378Z,998.3
2022-09-17T14:43:30.439Z,998.3
2022-09-17T14:44:23.532Z,998.3
2022-09-17T14:45:29.825Z,998.3
2022-09-17T14:46:24.418Z,998.3
2022-09-17T14:47:25.122Z,998.4
2022-09-17T14:48:24.636Z,998.4
2022-09-17T14:49:23.828Z,998.4
2022-09-17T14:50:28.344Z,998.4
2022-09-17T14:51:25.381Z,998.4
2022-09-17T14:52:33.871Z,998.4
2022-09-17T14:53:25.034Z,998.4
2022-09-17T14:54:26.401Z,998.4
2022-09-17T14:55:26.681Z,998.4
2022-09-17T14:56:27.806Z,998.4